Time;durP1;ratioP1;P1;durP2;ratioP2;P2;SDS_P1;SDS_P2;PMS_P1;PMS_P2;Temp;Humidity;BMP_temperature;BMP_pressure;BME280_temperature;BME280_humidity;BME280_pressure;Samples;Min_cycle;Max_cycle;Signal;HPM_P1;HPM_P2
2023/08/15 00:01:47;;;;;;;2.33;1.73;;;24.80;62.80;;;;;;5008672;28;20049;-67
2023/08/15 00:04:12;;;;;;;2.40;1.90;;;24.70;63.50;;;;;;5015439;28;20041;-68
2023/08/15 00:06:38;;;;;;;2.65;1.90;;;24.60;63.70;;;;;;5013319;28;20033;-68
2023/08/15 00:09:04;;;;;;;7.03;1.53;;;24.70;65.10;;;;;;5010577;28;20029;-67
2023/08/15 00:11:29;;;;;;;5.63;1.75;;;24.60;65.80;;;;;;5006725;28;20504;-67
2023/08/15 00:13:56;;;;;;;2.90;2.00;;;24.60;66.10;;;;;;5010672;28;20040;-68
2023/08/15 00:16:22;;;;;;;4.93;2.08;;;24.50;67.40;;;;;;5011838;28;20081;-68
2023/08/15 00:18:48;;;;;;;3.45;1.60;;;24.50;65.10;;;;;;5014022;28;20049;-68
2023/08/15 00:21:13;;;;;;;4.00;1.50;;;24.40;64.60;;;;;;5009100;28;20068;-67
2023/08/15 00:23:39;;;;;;;3.10;1.87;;;24.30;66.80;;;;;;5006673;28;20054;-68
2023/08/15 00:26:04;;;;;;;2.92;1.60;;;24.50;64.50;;;;;;5011863;28;20030;-67
2023/08/15 00:28:30;;;;;;;3.67;1.50;;;24.50;64.00;;;;;;5016339;28;20987;-68
2023/08/15 00:30:55;;;;;;;3.07;1.53;;;24.50;66.40;;;;;;5018474;28;20283;-68
2023/08/15 00:33:21;;;;;;;4.17;1.60;;;24.40;68.00;;;;;;5013672;28;20390;-68
2023/08/15 00:35:47;;;;;;;3.50;2.20;;;24.50;63.60;;;;;;5016286;28;20068;-68
2023/08/15 00:38:12;;;;;;;1.87;1.53;;;24.40;66.60;;;;;;5013458;28;20822;-68
2023/08/15 00:40:39;;;;;;;3.27;1.87;;;24.40;65.10;;;;;;5010480;28;20036;-67
2023/08/15 00:43:05;;;;;;;3.65;1.60;;;24.40;64.20;;;;;;5010160;28;20044;-68
2023/08/15 00:45:31;;;;;;;2.95;1.65;;;24.30;64.50;;;;;;5010763;28;20029;-68
2023/08/15 00:47:57;;;;;;;3.05;1.75;;;24.20;66.10;;;;;;5010298;28;20133;-68
2023/08/15 00:50:23;;;;;;;2.05;1.80;;;24.20;66.30;;;;;;5011193;28;20860;-67
2023/08/15 00:52:49;;;;;;;3.70;1.80;;;24.20;65.70;;;;;;5013377;28;20034;-68
2023/08/15 00:55:17;;;;;;;2.97;1.60;;;24.40;65.10;;;;;;5020360;28;20068;-68
2023/08/15 00:57:43;;;;;;;3.47;1.70;;;24.50;64.10;;;;;;5014334;28;20416;-68
2023/08/15 01:00:09;;;;;;;2.63;1.88;;;24.40;66.20;;;;;;5006772;28;20116;-68
2023/08/15 01:02:35;;;;;;;5.63;2.28;;;24.30;64.80;;;;;;5009323;28;20133;-68
2023/08/15 01:05:00;;;;;;;4.00;1.80;;;24.30;67.00;;;;;;5016200;28;20037;-68
2023/08/15 01:07:26;;;;;;;4.05;1.70;;;24.20;69.20;;;;;;5018733;28;20489;-68
2023/08/15 01:09:51;;;;;;;2.43;1.70;;;24.40;64.80;;;;;;5013095;28;20041;-68
2023/08/15 01:12:41;;;;;;;2.43;1.60;;;24.30;64.50;;;;;;5005889;28;20037;-68
2023/08/15 01:15:11;;;;;;;4.75;1.48;;;24.40;64.90;;;;;;5015915;28;20029;-68
2023/08/15 01:17:44;;;;;;;5.03;1.95;;;24.40;64.40;;;;;;5011381;28;20045;-67
2023/08/15 01:20:15;;;;;;;3.80;2.58;;;24.40;64.70;;;;;;5011016;28;20018;-68
2023/08/15 01:22:46;;;;;;;4.95;2.30;;;24.20;65.00;;;;;;5015797;28;20524;-68
2023/08/15 01:25:12;;;;;;;3.80;1.85;;;24.20;65.80;;;;;;5004362;28;20033;-68
2023/08/15 01:27:38;;;;;;;3.47;2.00;;;24.20;65.30;;;;;;5008712;28;20052;-70
2023/08/15 01:30:04;;;;;;;3.78;2.20;;;24.20;65.50;;;;;;5006362;28;20466;-69
2023/08/15 01:32:50;;;;;;;;;;;24.10;68.00;;;;;;5005850;28;20029;-68
2023/08/15 01:35:22;;;;;;;3.30;1.98;;;24.10;65.90;;;;;;5010275;28;19940;-68
2023/08/15 01:37:58;;;;;;;9.48;2.15;;;24.00;66.70;;;;;;5006718;28;20042;-68
2023/08/15 01:40:26;;;;;;;3.13;1.87;;;24.20;65.20;;;;;;4991809;28;20565;-69
2023/08/15 01:42:55;;;;;;;2.78;1.90;;;24.20;65.30;;;;;;5012191;28;20049;-69
2023/08/15 01:45:23;;;;;;;3.38;1.90;;;24.20;65.20;;;;;;5006834;28;20125;-69
2023/08/15 01:47:51;;;;;;;4.75;1.88;;;24.20;65.60;;;;;;5004186;28;20501;-67
2023/08/15 01:50:16;;;;;;;2.17;1.77;;;24.20;65.60;;;;;;5018095;28;20036;-69
2023/08/15 01:52:42;;;;;;;3.23;1.93;;;24.20;65.40;;;;;;5015557;28;20037;-69
2023/08/15 01:55:08;;;;;;;3.87;1.90;;;24.10;65.80;;;;;;5007220;28;20025;-70
2023/08/15 01:57:33;;;;;;;3.72;1.80;;;24.20;65.30;;;;;;5010321;28;20060;-70
2023/08/15 01:59:59;;;;;;;3.27;2.13;;;24.20;66.00;;;;;;5005002;28;20043;-69
2023/08/15 02:02:24;;;;;;;3.67;2.00;;;24.20;65.80;;;;;;5011569;28;20038;-70
2023/08/15 02:04:50;;;;;;;2.77;1.77;;;24.10;66.20;;;;;;5010290;28;20392;-69
2023/08/15 02:07:15;;;;;;;3.60;2.27;;;24.00;66.30;;;;;;5011206;28;20025;-70
2023/08/15 02:09:41;;;;;;;2.83;1.90;;;24.00;66.50;;;;;;5010546;28;20569;-70
2023/08/15 02:12:07;;;;;;;3.57;2.20;;;24.00;66.80;;;;;;5011243;28;20029;-69
2023/08/15 02:14:33;;;;;;;4.05;2.22;;;23.90;66.90;;;;;;5010029;28;20107;-68
2023/08/15 02:16:58;;;;;;;3.45;2.03;;;23.80;67.40;;;;;;5012912;28;20117;-68
2023/08/15 02:19:24;;;;;;;2.50;1.97;;;23.80;67.20;;;;;;5007311;28;20069;-67
2023/08/15 02:21:51;;;;;;;2.17;1.77;;;23.70;68.50;;;;;;5010049;28;20040;-68
2023/08/15 02:24:16;;;;;;;4.75;2.35;;;23.60;68.80;;;;;;5017472;28;20040;-70
2023/08/15 02:26:42;;;;;;;5.43;2.43;;;23.80;67.40;;;;;;5008452;28;20034;-70
2023/08/15 02:29:07;;;;;;;6.07;1.93;;;23.70;67.80;;;;;;5002408;28;20308;-70
2023/08/15 02:31:33;;;;;;;4.70;2.23;;;23.60;69.20;;;;;;5017630;28;20022;-70
2023/08/15 02:33:59;;;;;;;4.47;2.80;;;23.50;68.90;;;;;;5009800;28;20892;-69
2023/08/15 02:36:24;;;;;;;5.17;2.17;;;23.60;69.10;;;;;;5016507;28;20029;-71
2023/08/15 02:38:50;;;;;;;3.23;2.33;;;23.60;68.90;;;;;;5013727;28;20834;-72
2023/08/15 02:41:16;;;;;;;3.20;2.00;;;23.60;69.00;;;;;;5013197;28;20379;-67
2023/08/15 02:43:41;;;;;;;6.77;2.47;;;23.50;69.20;;;;;;5020628;28;20026;-68
2023/08/15 02:46:07;;;;;;;7.00;2.23;;;23.50;69.80;;;;;;5016801;28;20298;-67
2023/08/15 02:48:33;;;;;;;2.53;2.17;;;23.40;70.40;;;;;;5015983;28;20387;-67
2023/08/15 02:50:58;;;;;;;4.57;2.60;;;23.30;71.10;;;;;;5011383;28;20054;-68
2023/08/15 02:53:24;;;;;;;8.80;2.30;;;23.20;70.60;;;;;;5018122;28;20126;-68
2023/08/15 02:55:50;;;;;;;3.35;2.28;;;23.20;73.00;;;;;;5015143;28;20026;-68
2023/08/15 02:58:17;;;;;;;5.57;2.22;;;23.20;72.20;;;;;;5016900;28;20053;-67
2023/08/15 03:00:43;;;;;;;3.00;2.35;;;23.20;71.70;;;;;;5015785;28;20436;-68
2023/08/15 03:03:09;;;;;;;5.80;2.15;;;23.10;72.10;;;;;;5013852;28;20037;-69
2023/08/15 03:05:37;;;;;;;3.53;2.20;;;23.20;71.70;;;;;;5015467;28;20037;-69
2023/08/15 03:08:03;;;;;;;3.65;2.33;;;23.30;71.50;;;;;;5008021;28;20311;-69
2023/08/15 03:10:29;;;;;;;5.15;2.25;;;23.40;71.10;;;;;;5010110;28;20397;-69
2023/08/15 03:12:54;;;;;;;3.03;2.10;;;23.20;72.50;;;;;;5019253;28;20819;-69
2023/08/15 03:15:20;;;;;;;5.13;2.23;;;23.10;72.10;;;;;;5021135;28;20092;-69
2023/08/15 03:17:45;;;;;;;7.00;2.43;;;23.20;71.50;;;;;;5016004;28;20288;-69
2023/08/15 03:20:12;;;;;;;6.03;2.77;;;23.20;71.80;;;;;;5006394;28;20452;-69
2023/08/15 03:22:37;;;;;;;6.30;2.13;;;23.10;71.70;;;;;;5015374;28;20767;-67
2023/08/15 03:25:03;;;;;;;8.07;2.20;;;23.10;72.10;;;;;;5013080;28;20038;-69
2023/08/15 03:27:29;;;;;;;5.85;2.35;;;23.00;72.80;;;;;;5011040;28;20498;-69
2023/08/15 03:29:54;;;;;;;10.10;2.57;;;23.10;72.10;;;;;;5008185;28;20407;-69
2023/08/15 03:32:20;;;;;;;3.47;2.33;;;23.10;71.90;;;;;;5006540;28;20061;-70
2023/08/15 03:34:46;;;;;;;8.67;2.63;;;23.10;72.00;;;;;;5012985;28;20056;-69
2023/08/15 03:37:11;;;;;;;3.87;2.23;;;22.90;74.10;;;;;;5011894;28;20207;-69
2023/08/15 03:39:37;;;;;;;5.93;2.03;;;22.90;73.40;;;;;;5011698;28;20029;-69
2023/08/15 03:42:03;;;;;;;3.80;2.37;;;22.90;73.40;;;;;;5012686;28;20501;-67
2023/08/15 03:44:28;;;;;;;6.60;3.42;;;22.90;74.30;;;;;;5016945;28;20033;-67
2023/08/15 03:46:54;;;;;;;4.97;2.10;;;22.90;74.00;;;;;;5017220;28;20033;-67
2023/08/15 03:49:19;;;;;;;5.53;2.20;;;22.70;74.20;;;;;;5016908;28;20135;-67
2023/08/15 03:51:45;;;;;;;5.17;2.57;;;22.60;75.40;;;;;;5005449;28;20037;-67
2023/08/15 03:54:10;;;;;;;3.20;2.37;;;22.50;74.50;;;;;;5005770;28;20126;-67
2023/08/15 03:56:36;;;;;;;2.67;1.77;;;22.50;74.80;;;;;;5018345;28;20496;-67
2023/08/15 03:59:02;;;;;;;3.87;2.73;;;22.60;76.40;;;;;;5009622;28;20073;-67
2023/08/15 04:01:28;;;;;;;8.48;2.50;;;22.50;76.90;;;;;;5008190;28;20029;-69
2023/08/15 04:03:54;;;;;;;4.13;2.58;;;22.60;77.10;;;;;;5013494;28;20044;-69
2023/08/15 04:06:20;;;;;;;4.38;2.22;;;22.70;75.80;;;;;;5010527;28;20528;-69
2023/08/15 04:08:45;;;;;;;3.57;2.40;;;22.80;75.60;;;;;;5010580;28;20034;-69
2023/08/15 04:11:11;;;;;;;2.97;2.60;;;22.90;75.10;;;;;;5017015;28;20080;-69
2023/08/15 04:13:37;;;;;;;7.53;3.30;;;23.00;74.80;;;;;;4998601;28;20295;-69
2023/08/15 04:16:02;;;;;;;7.37;2.73;;;22.80;77.00;;;;;;5011701;28;20022;-69
2023/08/15 04:18:28;;;;;;;8.37;2.80;;;22.60;80.00;;;;;;5015921;28;20076;-69
2023/08/15 04:20:53;;;;;;;4.57;2.63;;;22.60;77.50;;;;;;5006626;28;20516;-69
2023/08/15 04:23:19;;;;;;;3.53;2.10;;;22.50;79.00;;;;;;5008384;28;20037;-69
2023/08/15 04:25:45;;;;;;;5.70;2.47;;;22.50;81.60;;;;;;5006789;28;20059;-67
2023/08/15 04:28:11;;;;;;;10.30;2.50;;;22.50;80.70;;;;;;5015502;28;20062;-68
2023/08/15 04:30:37;;;;;;;4.60;2.53;;;22.30;81.60;;;;;;5011660;28;20231;-68
2023/08/15 04:33:03;;;;;;;4.03;2.28;;;22.30;80.80;;;;;;5017445;28;20393;-68
2023/08/15 04:35:28;;;;;;;4.13;2.53;;;22.40;79.80;;;;;;5020469;28;20370;-70
2023/08/15 04:37:54;;;;;;;5.10;3.20;;;22.50;79.80;;;;;;5015896;28;20389;-69
2023/08/15 04:40:43;;;;;;;4.67;2.67;;;22.70;78.70;;;;;;5013853;28;20075;-70
2023/08/15 04:43:10;;;;;;;2.78;2.22;;;22.70;78.50;;;;;;5013979;28;20338;-70
2023/08/15 04:45:40;;;;;;;5.80;2.60;;;22.70;78.30;;;;;;5011720;28;20443;-69
2023/08/15 04:48:10;;;;;;;3.15;2.50;;;22.70;79.10;;;;;;5009727;28;20034;-66
2023/08/15 04:50:36;;;;;;;4.10;2.10;;;22.40;81.20;;;;;;5005333;28;20497;-64
2023/08/15 04:53:02;;;;;;;;;;;22.30;81.40;;;;;;5008994;28;20068;-68
2023/08/15 04:55:27;;;;;;;9.07;2.60;;;22.30;81.60;;;;;;5015956;28;20389;-66
2023/08/15 04:57:53;;;;;;;6.93;2.60;;;22.40;83.10;;;;;;5013496;28;20040;-65
2023/08/15 05:00:19;;;;;;;5.00;2.33;;;22.20;84.20;;;;;;5012578;28;20112;-70
2023/08/15 05:02:46;;;;;;;4.25;2.60;;;22.20;84.60;;;;;;5009625;28;20026;-70
2023/08/15 05:05:12;;;;;;;3.72;2.40;;;22.30;83.70;;;;;;5015259;28;20955;-70
2023/08/15 05:07:38;;;;;;;6.97;3.63;;;22.40;83.90;;;;;;5007113;28;20030;-68
2023/08/15 05:10:05;;;;;;;4.65;2.40;;;22.50;82.90;;;;;;5005909;28;20030;-68
2023/08/15 05:12:31;;;;;;;4.75;2.70;;;22.50;84.10;;;;;;5015040;28;20033;-68
2023/08/15 05:14:56;;;;;;;8.43;3.40;;;22.20;84.80;;;;;;5014994;28;20112;-69
2023/08/15 05:17:22;;;;;;;5.87;2.87;;;22.30;89.00;;;;;;5009157;28;20053;-67
2023/08/15 05:19:48;;;;;;;5.53;3.00;;;22.00;86.90;;;;;;5006947;28;20089;-68
2023/08/15 05:22:13;;;;;;;4.10;2.83;;;21.90;89.40;;;;;;5009953;28;20080;-69
2023/08/15 05:24:39;;;;;;;31.87;4.00;;;22.00;90.50;;;;;;5006866;28;20036;-68
2023/08/15 05:27:05;;;;;;;6.38;3.08;;;21.80;91.60;;;;;;5009325;28;20096;-68
2023/08/15 05:29:30;;;;;;;7.40;3.37;;;21.70;93.60;;;;;;5017315;28;20109;-69
2023/08/15 05:31:56;;;;;;;7.13;3.40;;;21.80;94.60;;;;;;5005904;28;20045;-66
2023/08/15 05:34:21;;;;;;;7.83;3.30;;;21.60;93.10;;;;;;5014937;28;20029;-66
2023/08/15 05:36:47;;;;;;;5.23;3.47;;;21.70;94.10;;;;;;5010636;28;20121;-66
2023/08/15 05:39:12;;;;;;;4.13;3.07;;;21.70;93.60;;;;;;5008404;28;20062;-66
2023/08/15 05:41:38;;;;;;;3.63;2.83;;;21.80;95.10;;;;;;5008412;28;20030;-67
2023/08/15 05:44:04;;;;;;;7.30;2.30;;;21.80;94.40;;;;;;5009777;28;20034;-69
2023/08/15 05:46:29;;;;;;;7.25;2.50;;;21.90;89.70;;;;;;5006806;28;20523;-70
2023/08/15 05:48:55;;;;;;;6.13;2.90;;;22.10;86.40;;;;;;5012205;28;20048;-71
2023/08/15 05:51:21;;;;;;;5.73;2.80;;;22.00;86.90;;;;;;5016507;28;20085;-71
2023/08/15 05:53:46;;;;;;;3.50;2.30;;;22.10;88.10;;;;;;5002675;28;20022;-71
2023/08/15 05:56:12;;;;;;;5.57;2.47;;;21.90;89.20;;;;;;5014351;28;20445;-70
2023/08/15 05:58:37;;;;;;;6.53;2.60;;;21.90;88.10;;;;;;5004723;28;20149;-70
2023/08/15 06:01:04;;;;;;;4.47;2.70;;;21.90;88.50;;;;;;4998281;28;20041;-71
2023/08/15 06:03:29;;;;;;;;;;;21.70;90.90;;;;;;5005886;28;20718;-72
2023/08/15 06:05:56;;;;;;;8.48;2.90;;;21.70;90.70;;;;;;5005546;28;19913;-72
2023/08/15 06:08:22;;;;;;;13.30;3.08;;;21.80;90.00;;;;;;5007871;28;20068;-70
2023/08/15 06:10:48;;;;;;;5.57;2.50;;;21.80;89.10;;;;;;4999627;28;20069;-71
2023/08/15 06:13:13;;;;;;;4.22;2.70;;;21.70;90.70;;;;;;4996569;28;20458;-70
2023/08/15 06:15:39;;;;;;;6.80;3.00;;;21.70;91.30;;;;;;5007810;28;20037;-70
2023/08/15 06:18:05;;;;;;;11.13;2.40;;;21.70;90.20;;;;;;5008544;28;20061;-69
2023/08/15 06:20:31;;;;;;;5.20;2.80;;;21.70;90.20;;;;;;5007327;28;20637;-69
2023/08/15 06:22:56;;;;;;;3.35;2.25;;;21.70;90.00;;;;;;5009621;28;20036;-69
2023/08/15 06:25:22;;;;;;;4.78;2.83;;;21.70;90.20;;;;;;5007897;28;20072;-71
2023/08/15 06:27:48;;;;;;;7.60;3.13;;;21.80;90.10;;;;;;5004011;28;20080;-71
2023/08/15 06:30:13;;;;;;;5.23;2.83;;;22.00;89.60;;;;;;5006138;28;20435;-71
2023/08/15 06:32:39;;;;;;;6.37;3.17;;;22.00;90.00;;;;;;5012798;28;20036;-73
2023/08/15 06:35:09;;;;;;;4.03;2.73;;;21.90;90.60;;;;;;5003424;28;20378;-71
2023/08/15 06:37:34;;;;;;;8.70;3.00;;;21.90;90.60;;;;;;5011424;28;20509;-72
2023/08/15 06:40:00;;;;;;;6.37;2.80;;;22.20;88.50;;;;;;5004738;28;20040;-72
2023/08/15 06:42:26;;;;;;;6.67;2.97;;;22.20;88.00;;;;;;5011415;28;20033;-70
2023/08/15 06:45:05;;;;;;;7.60;3.00;;;22.20;88.40;;;;;;5010517;28;20037;-72
2023/08/15 06:47:30;;;;;;;7.18;2.70;;;22.20;89.60;;;;;;5003428;28;20412;-72
2023/08/15 06:49:56;;;;;;;4.07;3.10;;;22.30;88.10;;;;;;5003144;28;20089;-73
2023/08/15 06:52:22;;;;;;;4.40;2.67;;;22.60;87.40;;;;;;5007915;28;20040;-72
2023/08/15 06:54:47;;;;;;;4.97;2.88;;;22.40;88.70;;;;;;5008746;28;20120;-70
2023/08/15 06:57:13;;;;;;;4.78;2.80;;;22.60;88.30;;;;;;5014074;28;20116;-70
2023/08/15 06:59:39;;;;;;;4.97;2.90;;;22.60;87.60;;;;;;5003363;28;20559;-68
2023/08/15 07:02:05;;;;;;;10.90;3.20;;;22.80;85.60;;;;;;5004342;28;20062;-73
2023/08/15 07:04:32;;;;;;;6.57;2.90;;;23.00;84.80;;;;;;5006308;28;20030;-72
2023/08/15 07:06:58;;;;;;;10.95;3.67;;;23.10;83.60;;;;;;4998011;28;20026;-72
2023/08/15 07:09:27;;;;;;;9.93;4.32;;;23.30;85.40;;;;;;5003150;28;20044;-73
2023/08/15 07:11:53;;;;;;;6.75;3.25;;;23.50;86.60;;;;;;5005147;28;20116;-71
2023/08/15 07:14:19;;;;;;;6.93;2.90;;;23.60;86.60;;;;;;5005741;28;20042;-73
2023/08/15 07:16:46;;;;;;;4.90;3.13;;;23.80;83.80;;;;;;5003107;28;20036;-73
2023/08/15 07:19:12;;;;;;;13.48;3.72;;;23.80;86.30;;;;;;5004044;28;20441;-71
2023/08/15 07:21:39;;;;;;;4.82;3.22;;;24.10;84.50;;;;;;5004532;28;20667;-73
2023/08/15 07:24:05;;;;;;;7.82;3.42;;;24.50;82.30;;;;;;5005338;28;20543;-73
2023/08/15 07:26:31;;;;;;;4.63;3.00;;;24.50;81.80;;;;;;5010443;28;20022;-73
2023/08/15 07:28:57;;;;;;;6.13;3.00;;;24.60;79.60;;;;;;5013792;28;20432;-73
2023/08/15 07:31:22;;;;;;;3.57;3.23;;;24.60;81.10;;;;;;5012645;28;20080;-73
2023/08/15 07:33:48;;;;;;;7.78;3.47;;;24.50;85.70;;;;;;5003955;28;20042;-73
2023/08/15 07:36:13;;;;;;;5.43;2.93;;;25.00;83.50;;;;;;5011180;28;20105;-73
2023/08/15 07:38:39;;;;;;;4.10;2.80;;;25.10;80.70;;;;;;5011822;28;20112;-71
2023/08/15 07:41:05;;;;;;;4.53;2.80;;;25.30;81.20;;;;;;5002921;28;20700;-71
2023/08/15 07:43:31;;;;;;;5.97;3.20;;;25.40;79.80;;;;;;5006158;28;20067;-70
2023/08/15 07:45:58;;;;;;;6.90;3.20;;;25.50;78.20;;;;;;5010539;28;20037;-69
2023/08/15 07:48:23;;;;;;;6.13;2.83;;;25.60;77.30;;;;;;5012011;28;20030;-70
2023/08/15 07:50:49;;;;;;;6.60;3.57;;;25.50;78.70;;;;;;5003622;28;20112;-69
2023/08/15 07:53:15;;;;;;;6.07;2.95;;;25.40;80.00;;;;;;5000647;28;20555;-70
2023/08/15 07:55:40;;;;;;;4.30;3.30;;;25.40;79.30;;;;;;5009463;28;20041;-69
2023/08/15 07:58:06;;;;;;;4.88;2.95;;;25.40;83.70;;;;;;5014786;28;20405;-70
2023/08/15 08:00:31;;;;;;;5.10;3.17;;;25.50;79.80;;;;;;5014371;28;20404;-70
2023/08/15 08:02:59;;;;;;;10.23;3.17;;;25.70;78.70;;;;;;5005004;28;20042;-70
2023/08/15 08:05:25;;;;;;;8.23;2.88;;;26.10;78.00;;;;;;5003681;28;20296;-69
2023/08/15 08:07:51;;;;;;;7.78;2.75;;;26.10;78.70;;;;;;5010932;28;20038;-69
2023/08/15 08:10:17;;;;;;;6.68;3.63;;;26.30;78.10;;;;;;5010456;28;20034;-70
2023/08/15 08:12:42;;;;;;;7.40;3.05;;;26.40;77.10;;;;;;5007613;28;20041;-69
2023/08/15 08:15:08;;;;;;;8.60;2.72;;;26.60;78.00;;;;;;5004260;28;20021;-69
2023/08/15 08:17:34;;;;;;;5.00;3.00;;;27.40;77.30;;;;;;5010654;28;20117;-70
2023/08/15 08:20:00;;;;;;;6.47;2.35;;;27.10;74.70;;;;;;5009498;28;20120;-70
2023/08/15 08:22:25;;;;;;;4.30;2.90;;;27.20;74.70;;;;;;5008950;28;20108;-70
2023/08/15 08:24:53;;;;;;;4.82;2.90;;;26.90;74.20;;;;;;5007804;28;20037;-70
2023/08/15 08:27:18;;;;;;;3.20;2.17;;;27.40;75.00;;;;;;5002094;28;20025;-71
2023/08/15 08:29:44;;;;;;;6.03;2.45;;;27.70;72.30;;;;;;5010909;28;20048;-70
2023/08/15 08:32:09;;;;;;;5.28;3.00;;;27.60;72.30;;;;;;5001010;28;20073;-70
2023/08/15 08:34:35;;;;;;;4.75;2.47;;;27.70;71.50;;;;;;5001902;28;20034;-73
2023/08/15 08:37:02;;;;;;;3.40;2.58;;;27.50;71.90;;;;;;5008677;28;20596;-73
2023/08/15 08:39:27;;;;;;;3.90;2.35;;;27.30;73.60;;;;;;5004837;28;20034;-74
2023/08/15 08:41:53;;;;;;;8.38;4.60;;;27.40;74.00;;;;;;4995897;28;20035;-74
2023/08/15 08:44:20;;;;;;;6.45;3.33;;;27.60;73.20;;;;;;5002793;28;20571;-73
2023/08/15 08:46:46;;;;;;;6.68;3.10;;;27.70;73.90;;;;;;5007046;28;20057;-73
2023/08/15 08:49:13;;;;;;;10.65;3.22;;;27.80;74.80;;;;;;5008705;28;20084;-73
2023/08/15 08:51:39;;;;;;;7.47;3.08;;;28.00;72.90;;;;;;5001595;28;20029;-73
2023/08/15 08:54:05;;;;;;;4.47;3.00;;;28.50;72.10;;;;;;5002209;28;20045;-72
2023/08/15 08:56:32;;;;;;;9.98;3.40;;;28.80;70.50;;;;;;5004114;28;20042;-72
2023/08/15 08:59:11;;;;;;;7.40;2.97;;;28.90;70.50;;;;;;5005025;28;20890;-73
2023/08/15 09:01:38;;;;;;;4.20;2.65;;;29.20;66.30;;;;;;4998497;28;20026;-74
2023/08/15 09:04:04;;;;;;;7.05;2.45;;;29.10;68.90;;;;;;4998167;28;20053;-74
2023/08/15 09:06:30;;;;;;;5.13;3.38;;;28.60;67.90;;;;;;5006689;28;20913;-74
2023/08/15 09:08:58;;;;;;;3.95;2.38;;;28.20;70.20;;;;;;5007322;28;20033;-73
2023/08/15 09:11:32;;;;;;;8.10;2.65;;;28.10;70.60;;;;;;5005739;28;20416;-73
2023/08/15 09:14:03;;;;;;;6.15;2.70;;;28.50;69.80;;;;;;5001408;28;20085;-72
2023/08/15 09:16:29;;;;;;;7.68;3.28;;;28.80;69.50;;;;;;5011381;28;20025;-73
2023/08/15 09:18:54;;;;;;;;;;;28.80;68.30;;;;;;5006006;28;20429;-73
2023/08/15 09:21:22;;;;;;;6.65;3.58;;;29.20;68.20;;;;;;5003121;28;19913;-73
2023/08/15 09:23:51;;;;;;;5.40;2.85;;;30.70;66.10;;;;;;5007541;28;20097;-75
2023/08/15 09:26:16;;;;;;;6.00;2.35;;;31.50;63.70;;;;;;5010288;28;20033;-73
2023/08/15 09:28:43;;;;;;;12.45;3.25;;;31.70;63.40;;;;;;5002890;28;20019;-74
2023/08/15 09:31:10;;;;;;;7.35;2.25;;;31.60;62.80;;;;;;5008933;28;20061;-75
2023/08/15 09:33:39;;;;;;;13.52;3.55;;;31.70;62.90;;;;;;5004098;28;20034;-72
2023/08/15 09:36:09;;;;;;;12.63;3.17;;;31.00;63.60;;;;;;5004362;28;20030;-73
2023/08/15 09:38:39;;;;;;;3.20;2.75;;;31.30;64.00;;;;;;5010470;28;20042;-73
2023/08/15 09:41:05;;;;;;;4.22;2.97;;;32.40;62.20;;;;;;5005448;28;20076;-71
2023/08/15 09:43:32;;;;;;;4.70;2.60;;;33.20;60.90;;;;;;5001056;28;20434;-73
2023/08/15 09:45:59;;;;;;;4.82;3.45;;;34.00;59.60;;;;;;5005957;28;20406;-68
2023/08/15 09:48:27;;;;;;;4.07;2.90;;;34.10;59.20;;;;;;5011275;28;20033;-70
2023/08/15 09:50:55;;;;;;;6.10;2.80;;;34.40;58.80;;;;;;5000327;28;20045;-70
2023/08/15 09:53:22;;;;;;;5.40;2.60;;;33.50;59.40;;;;;;5003215;28;20037;-70
2023/08/15 09:55:48;;;;;;;4.97;2.78;;;32.00;62.10;;;;;;5004401;28;20126;-70
2023/08/15 09:58:14;;;;;;;2.85;2.15;;;30.90;64.10;;;;;;5011797;28;20507;-69
2023/08/15 10:00:40;;;;;;;;;;;31.20;65.00;;;;;;5002133;28;20045;-70
2023/08/15 10:03:19;;;;;;;6.32;2.53;;;33.00;62.10;;;;;;5008782;28;19909;-72
2023/08/15 10:05:54;;;;;;;3.80;2.65;;;34.40;59.90;;;;;;5004604;28;20866;-71
2023/08/15 10:08:20;;;;;;;3.70;2.15;;;34.60;59.20;;;;;;5009584;28;20038;-71
2023/08/15 10:10:51;;;;;;;4.25;2.47;;;34.10;59.20;;;;;;5004096;28;20454;-73
2023/08/15 10:13:21;;;;;;;3.40;2.45;;;32.30;61.20;;;;;;5009348;28;20026;-70
2023/08/15 10:15:47;;;;;;;4.43;2.58;;;32.80;61.80;;;;;;5007891;28;20421;-72
2023/08/15 10:18:13;;;;;;;4.63;2.60;;;33.60;60.00;;;;;;4999523;28;20040;-71
2023/08/15 10:20:39;;;;;;;3.35;2.55;;;34.10;59.50;;;;;;5000982;28;20498;-70
2023/08/15 10:23:10;;;;;;;3.53;2.80;;;34.10;58.80;;;;;;5008733;28;20029;-69
2023/08/15 10:25:39;;;;;;;5.85;2.45;;;33.20;59.70;;;;;;5003587;28;20037;-73
2023/08/15 10:28:09;;;;;;;3.85;2.55;;;32.40;61.30;;;;;;5008988;28;20347;-72
2023/08/15 10:30:47;;;;;;;4.20;2.90;;;32.50;58.60;;;;;;4999066;28;20034;-72
2023/08/15 10:33:15;;;;;;;6.78;2.63;;;31.70;61.30;;;;;;5004417;28;20421;-71
2023/08/15 10:35:54;;;;;;;6.45;2.22;;;30.80;62.10;;;;;;5007087;28;20026;-72
2023/08/15 10:38:25;;;;;;;3.83;2.70;;;30.30;63.40;;;;;;5001994;28;20042;-70
2023/08/15 10:40:52;;;;;;;3.05;2.75;;;30.50;64.20;;;;;;5006976;28;20038;-72
2023/08/15 10:43:18;;;;;;;6.72;2.72;;;30.10;63.80;;;;;;5011479;28;20052;-72
2023/08/15 10:45:50;;;;;;;;;;;29.80;64.40;;;;;;5014223;28;20137;-72
2023/08/15 10:49:02;;;;;;;3.85;2.58;;;29.70;64.40;;;;;;5006926;28;19921;-71
2023/08/15 10:51:29;;;;;;;5.18;2.28;;;29.90;63.60;;;;;;4999972;28;20083;-70
2023/08/15 10:53:58;;;;;;;4.82;1.92;;;30.00;63.60;;;;;;5003897;28;20105;-71
2023/08/15 10:56:28;;;;;;;3.38;2.22;;;29.70;64.50;;;;;;5008072;28;20469;-70
2023/08/15 10:58:55;;;;;;;3.03;1.77;;;29.80;63.80;;;;;;5002663;28;20046;-69
2023/08/15 11:01:23;;;;;;;6.93;2.58;;;29.70;60.70;;;;;;5007201;28;20555;-69
2023/08/15 11:03:51;;;;;;;4.85;1.80;;;29.60;62.90;;;;;;5008837;28;20116;-69
2023/08/15 11:06:17;;;;;;;2.10;1.90;;;29.50;62.10;;;;;;5001452;28;20022;-71
2023/08/15 11:08:52;;;;;;;5.15;1.95;;;29.50;62.60;;;;;;5014197;28;20112;-71
2023/08/15 11:11:18;;;;;;;3.30;2.00;;;29.30;63.70;;;;;;5009738;28;20038;-71
2023/08/15 11:13:46;;;;;;;3.65;2.22;;;29.20;62.90;;;;;;5002247;28;20409;-71
2023/08/15 11:16:14;;;;;;;3.60;1.90;;;29.20;62.90;;;;;;5014628;28;20034;-70
2023/08/15 11:18:41;;;;;;;9.38;2.28;;;29.30;64.10;;;;;;5007825;28;20042;-72
2023/08/15 11:21:11;;;;;;;3.80;2.10;;;29.80;62.70;;;;;;5008011;28;20033;-73
2023/08/15 11:23:37;;;;;;;6.25;2.17;;;29.50;63.00;;;;;;5001464;28;20026;-73
2023/08/15 11:26:08;;;;;;;4.78;1.80;;;29.70;62.10;;;;;;5007370;28;20037;-71
2023/08/15 11:28:35;;;;;;;2.70;1.98;;;29.40;61.30;;;;;;4998722;28;20021;-72
2023/08/15 11:31:10;;;;;;;6.22;2.30;;;29.40;62.00;;;;;;5012715;28;20027;-71
2023/08/15 11:33:36;;;;;;;5.70;2.60;;;29.70;61.10;;;;;;5000633;28;20463;-72
2023/08/15 11:36:03;;;;;;;3.05;2.45;;;29.60;61.30;;;;;;5002474;28;20114;-73
2023/08/15 11:38:29;;;;;;;3.20;2.00;;;29.40;61.80;;;;;;5008148;28;20050;-71
2023/08/15 11:40:57;;;;;;;4.47;2.03;;;29.30;62.80;;;;;;5007837;28;20408;-71
2023/08/15 11:43:23;;;;;;;2.40;2.20;;;29.40;63.70;;;;;;5004211;28;20733;-72
2023/08/15 11:45:49;;;;;;;2.72;1.90;;;29.50;63.80;;;;;;5008678;28;20107;-72
2023/08/15 11:48:14;;;;;;;2.50;2.00;;;29.80;63.40;;;;;;5005771;28;20039;-71
2023/08/15 11:50:43;;;;;;;2.83;1.90;;;30.00;62.30;;;;;;5008246;28;20469;-70
2023/08/15 11:53:14;;;;;;;8.75;1.75;;;30.10;60.00;;;;;;5002110;28;20026;-70
2023/08/15 11:55:40;;;;;;;6.03;2.20;;;30.10;60.10;;;;;;5006453;28;20058;-69
2023/08/15 11:58:29;;;;;;;2.35;1.90;;;30.40;58.60;;;;;;5000076;28;20026;-70
2023/08/15 12:01:02;;;;;;;3.65;2.10;;;30.10;58.00;;;;;;5007823;28;20053;-72
2023/08/15 12:03:29;;;;;;;9.60;2.47;;;29.80;59.40;;;;;;5013348;28;20033;-70
2023/08/15 12:05:58;;;;;;;4.78;2.65;;;29.80;60.10;;;;;;5000833;28;20076;-70
2023/08/15 12:08:28;;;;;;;3.85;2.20;;;29.70;59.60;;;;;;5006760;28;20074;-72
2023/08/15 12:10:55;;;;;;;5.95;2.25;;;29.80;58.50;;;;;;5012341;28;20041;-70
2023/08/15 12:13:38;;;;;;;7.95;2.10;;;30.10;58.50;;;;;;5011036;28;20045;-71
2023/08/15 12:16:04;;;;;;;5.18;2.30;;;29.60;60.40;;;;;;5006745;28;20030;-71
2023/08/15 12:18:31;;;;;;;3.38;1.73;;;29.30;60.10;;;;;;5004865;28;20049;-71
2023/08/15 12:20:57;;;;;;;6.72;2.15;;;29.10;60.90;;;;;;4985369;28;20569;-70
2023/08/15 12:23:23;;;;;;;2.70;1.88;;;29.20;60.20;;;;;;5006087;28;20113;-71
2023/08/15 12:25:48;;;;;;;2.10;1.70;;;29.10;61.10;;;;;;5003431;28;20038;-71
2023/08/15 12:28:14;;;;;;;4.05;2.03;;;29.60;60.90;;;;;;5005730;28;20038;-72
2023/08/15 12:30:40;;;;;;;8.65;3.58;;;30.00;60.10;;;;;;5002952;28;20564;-72
2023/08/15 12:33:06;;;;;;;4.72;1.58;;;29.90;58.50;;;;;;5006316;28;20137;-70
2023/08/15 12:35:35;;;;;;;3.13;2.17;;;29.90;57.50;;;;;;5003284;28;20038;-72
2023/08/15 12:38:00;;;;;;;2.97;1.90;;;29.60;59.30;;;;;;5004545;28;20805;-71
2023/08/15 12:40:26;;;;;;;3.70;1.95;;;29.50;59.20;;;;;;5013059;28;20033;-71
2023/08/15 12:42:52;;;;;;;2.05;1.80;;;29.70;57.70;;;;;;5001230;28;20498;-72
2023/08/15 12:45:17;;;;;;;5.18;1.90;;;29.80;58.60;;;;;;5006151;28;20692;-67
2023/08/15 12:47:43;;;;;;;5.95;1.80;;;31.00;55.10;;;;;;5014031;28;20119;-67